Time;durP1;ratioP1;P1;durP2;ratioP2;P2;SDS_P1;SDS_P2;PMS_P1;PMS_P2;Temp;Humidity;BMP_temperature;BMP_pressure;BME280_temperature;BME280_humidity;BME280_pressure;Samples;Min_cycle;Max_cycle;Signal;HPM_P1;HPM_P2
2024/04/11 00:00:23;;;;;;;18.90;10.70;;;;;;;11.03;72.39;100062.65;435103;1253;100588;-40
2024/04/11 00:10:49;;;;;;;14.20;10.20;;;;;;;10.98;72.45;100066.14;434921;1256;110348;-39
2024/04/11 00:20:56;;;;;;;18.40;11.10;;;;;;;10.89;72.56;100063.98;434980;1256;99692;-40
2024/04/11 00:31:03;;;;;;;17.90;11.30;;;;;;;10.83;72.48;100063.04;434948;1256;113602;-40
2024/04/11 00:41:10;;;;;;;15.50;11.40;;;;;;;10.88;72.73;100062.38;434948;1256;109407;-41
2024/04/11 00:51:17;;;;;;;18.50;12.60;;;;;;;10.98;72.94;100054.13;434940;1256;100600;-41
2024/04/11 01:01:25;;;;;;;18.10;12.40;;;;;;;10.90;72.90;100052.45;435001;1255;107766;-40
2024/04/11 01:11:32;;;;;;;15.20;11.50;;;;;;;10.76;73.07;100051.78;435627;1256;100673;-41
2024/04/11 01:21:39;;;;;;;18.20;11.60;;;;;;;10.74;73.14;100053.20;434448;1259;112274;-40
2024/04/11 01:31:45;;;;;;;21.60;11.80;;;;;;;10.79;73.34;100055.21;434352;1256;107544;-40
2024/04/11 01:41:53;;;;;;;25.90;12.80;;;;;;;10.85;73.49;100056.86;434440;1257;101233;-41
2024/04/11 01:52:09;;;;;;;21.50;12.00;;;;;;;10.86;73.68;100055.73;434336;1258;107356;-41
2024/04/11 02:02:17;;;;;;;16.70;12.00;;;;;;;10.77;73.76;100050.20;434242;1257;100700;-39
2024/04/11 02:22:29;;;;;;;17.00;10.50;;;;;;;10.55;73.72;100051.79;434795;1254;106802;-43
2024/04/11 02:42:43;;;;;;;19.90;13.80;;;;;;;10.19;73.93;100068.08;435064;1255;108224;-41
2024/04/11 02:52:49;;;;;;;19.90;13.40;;;;;;;9.93;74.18;100075.05;434973;1257;99411;-41
2024/04/11 03:02:57;;;;;;;25.50;14.10;;;;;;;9.80;74.26;100080.71;434927;1257;113340;-41
2024/04/11 03:13:04;;;;;;;19.40;12.70;;;;;;;9.66;74.35;100087.52;434952;1256;107951;-41
2024/04/11 03:23:11;;;;;;;39.20;17.70;;;;;;;9.51;74.54;100101.95;434862;1266;100581;-41
2024/04/11 03:33:17;;;;;;;36.10;19.40;;;;;;;9.25;74.69;100106.68;435085;1256;109367;-40
2024/04/11 03:43:24;;;;;;;36.50;20.00;;;;;;;8.94;74.56;100108.20;434919;1266;100598;-39
2024/04/11 03:53:31;;;;;;;35.50;18.40;;;;;;;8.63;74.67;100097.05;435022;1257;111194;-40
2024/04/11 04:03:38;;;;;;;38.60;17.60;;;;;;;8.51;75.33;100101.58;435000;1257;109382;-40
2024/04/11 04:13:45;;;;;;;28.40;17.20;;;;;;;8.60;75.82;100114.71;435025;1256;99421;-40
2024/04/11 04:34:03;;;;;;;23.10;13.40;;;;;;;8.76;76.16;100133.48;434930;1266;100462;-41
2024/04/11 04:44:11;;;;;;;24.70;14.10;;;;;;;8.98;76.38;100128.74;434876;1257;112777;-39
2024/04/11 04:54:19;;;;;;;27.40;18.20;;;;;;;9.27;76.51;100136.56;435042;1254;106819;-41
2024/04/11 05:04:29;;;;;;;36.10;16.90;;;;;;;9.68;76.86;100131.33;435082;1256;99372;-41
2024/04/11 05:14:38;;;;;;;36.80;15.10;;;;;;;10.19;76.75;100133.92;435098;1257;107900;-42
2024/04/11 05:24:44;;;;;;;34.40;14.30;;;;;;;10.66;76.22;100143.98;435113;1252;100587;-41
2024/04/11 05:34:51;;;;;;;30.30;12.30;;;;;;;10.99;75.83;100160.04;435053;1254;113821;-42
2024/04/11 05:44:57;;;;;;;15.40;9.90;;;;;;;11.13;75.65;100160.77;434633;1256;400110;-40
2024/04/11 05:55:07;;;;;;;14.80;9.80;;;;;;;11.22;75.38;100163.34;434960;1253;100600;-40
2024/04/11 06:05:14;;;;;;;15.40;9.70;;;;;;;11.34;75.10;100163.52;434867;1266;107697;-41
2024/04/11 06:15:21;;;;;;;17.70;10.80;;;;;;;11.55;74.97;100176.84;435047;1255;99692;-41
2024/04/11 06:25:27;;;;;;;17.00;10.10;;;;;;;11.72;74.72;100186.33;435044;1257;113127;-41
2024/04/11 06:35:35;;;;;;;18.10;12.30;;;;;;;12.26;74.08;100184.80;435075;1255;108703;-39
2024/04/11 06:45:41;;;;;;;19.20;11.30;;;;;;;12.80;73.54;100194.19;434912;1257;100703;-40
2024/04/11 06:55:49;;;;;;;19.30;10.60;;;;;;;13.50;72.21;100201.77;435212;1257;108558;-41
2024/04/11 07:05:56;;;;;;;15.50;8.70;;;;;;;14.58;71.84;100200.04;434953;1252;100597;-40
2024/04/11 07:16:06;;;;;;;11.60;6.80;;;;;;;15.13;69.14;100194.16;435043;1256;112618;-40
2024/04/11 07:26:15;;;;;;;11.30;7.50;;;;;;;14.95;67.43;100201.84;435069;1255;107474;-43
2024/04/11 07:36:25;;;;;;;13.90;6.30;;;;;;;15.24;66.92;100208.66;435045;1254;100606;-42
2024/04/11 07:46:33;;;;;;;11.90;6.80;;;;;;;15.83;65.51;100207.71;435032;1257;108942;-40
2024/04/11 07:56:53;;;;;;;9.20;5.10;;;;;;;16.27;64.60;100208.48;435112;1256;100616;-41
2024/04/11 08:07:00;;;;;;;20.00;6.00;;;;;;;16.93;63.41;100205.92;435149;1253;114435;-39
2024/04/11 08:27:11;;;;;;;8.90;5.60;;;;;;;16.42;59.70;100214.59;435252;1256;99378;-40
2024/04/11 08:37:18;;;;;;;9.90;6.90;;;;;;;16.24;60.01;100217.89;435115;1256;109493;-40
2024/04/11 08:47:26;;;;;;;12.00;7.10;;;;;;;16.17;59.94;100219.64;435005;1256;100585;-40
2024/04/11 08:57:33;;;;;;;6.70;5.10;;;;;;;15.93;59.58;100219.04;435077;1256;112409;-41
2024/04/11 09:07:38;;;;;;;7.70;4.40;;;;;;;16.14;59.77;100217.35;435057;1255;108353;-41
2024/04/11 09:17:44;;;;;;;6.60;3.80;;;;;;;16.36;59.30;100211.03;435236;1252;100575;-40
2024/04/11 09:38:00;;;;;;;5.00;4.10;;;;;;;16.23;58.43;100212.78;435214;1253;100581;-40
2024/04/11 09:48:12;;;;;;;13.30;4.30;;;;;;;16.27;57.91;100203.19;435052;1256;112589;-40
2024/04/11 09:58:20;;;;;;;8.00;4.30;;;;;;;16.20;57.20;100200.46;435063;1255;108006;-41
2024/04/11 10:18:45;;;;;;;32.50;6.00;;;;;;;16.22;56.65;100193.89;435035;1254;107298;-42
2024/04/11 10:28:57;;;;;;;4.50;4.10;;;;;;;16.86;55.28;100188.96;434728;1253;100629;-41
2024/04/11 11:09:23;;;;;;;11.30;3.00;;;;;;;18.49;52.65;100166.69;435143;1255;108073;-40
2024/04/11 11:19:34;;;;;;;5.80;3.40;;;;;;;17.76;51.82;100172.52;434928;1253;100580;-39
2024/04/11 11:39:50;;;;;;;23.50;4.20;;;;;;;17.87;51.19;100158.02;434996;1255;107954;-41
2024/04/11 12:00:18;;;;;;;7.50;3.40;;;;;;;17.53;51.08;100150.23;435009;1256;107918;-40
2024/04/11 12:20:36;;;;;;;7.20;2.70;;;;;;;16.96;50.82;100119.35;435115;1253;111546;-42
2024/04/11 12:30:43;;;;;;;9.10;3.20;;;;;;;17.58;50.57;100108.50;434969;1253;108150;-40
2024/04/11 12:51:06;;;;;;;4.10;2.60;;;;;;;17.67;49.25;100079.86;435122;1255;107081;-40
2024/04/11 13:01:18;;;;;;;8.70;2.00;;;;;;;17.54;49.03;100079.29;435068;1255;99414;-41
2024/04/11 13:21:50;;;;;;;2.70;1.70;;;;;;;17.32;49.22;100081.73;435068;1255;108013;-40
2024/04/11 13:31:57;;;;;;;28.20;3.30;;;;;;;17.29;49.48;100070.29;434892;1266;100674;-41
2024/04/11 13:42:05;;;;;;;11.80;2.10;;;;;;;17.47;49.17;100058.66;434991;1255;108415;-41
2024/04/11 14:02:46;;;;;;;9.70;2.40;;;;;;;17.48;48.74;100049.05;435124;1253;112943;-40
2024/04/11 14:12:54;;;;;;;2.00;1.80;;;;;;;17.69;48.81;100041.09;435137;1255;107420;-41
2024/04/11 14:43:48;;;;;;;3.40;2.20;;;;;;;17.37;48.22;100034.73;434920;1255;100569;-41
2024/04/11 14:53:55;;;;;;;3.80;2.00;;;;;;;17.21;48.28;100028.02;435133;1255;112780;-40
2024/04/11 15:04:05;;;;;;;7.10;1.60;;;;;;;17.09;48.30;100020.66;435041;1253;108615;-40
2024/04/11 15:14:13;;;;;;;16.80;2.80;;;;;;;17.04;48.42;100015.71;435006;1254;100585;-41
2024/04/11 15:24:22;;;;;;;10.70;3.40;;;;;;;16.95;48.58;100016.63;435154;1255;107878;-40
2024/04/11 15:34:29;;;;;;;40.30;5.40;;;;;;;16.76;48.58;100007.00;434931;1253;100601;-40
2024/04/11 15:55:08;;;;;;;8.80;4.30;;;;;;;16.32;48.65;99998.94;435023;1255;108148;-40
2024/04/11 16:15:21;;;;;;;6.90;3.50;;;;;;;16.11;49.62;99990.90;434909;1255;107627;-41
2024/04/11 16:25:32;;;;;;;9.90;3.50;;;;;;;15.90;49.60;99986.46;434929;1255;102874;-41
2024/04/11 16:45:46;;;;;;;11.80;4.90;;;;;;;15.47;50.61;99985.00;434809;1255;107280;-40
2024/04/11 16:55:54;;;;;;;5.40;2.70;;;;;;;15.23;51.01;99978.79;435148;1253;100601;-40
2024/04/11 17:06:10;;;;;;;39.20;6.00;;;;;;;14.97;51.55;99985.30;434962;1256;107107;-41
2024/04/11 17:16:18;;;;;;;6.70;2.70;;;;;;;14.70;52.21;99987.42;435079;1256;100593;-40
2024/04/11 17:26:27;;;;;;;42.30;7.30;;;;;;;14.33;52.66;99986.91;435112;1256;112449;-41
2024/04/11 17:37:06;;;;;;;35.90;14.30;;;;;;;14.03;53.36;99994.45;422941;1292;638920;-40
2024/04/11 17:57:24;;;;;;;98.60;22.70;;;;;;;13.22;54.81;100013.60;434124;1264;109740;-41
2024/04/11 18:17:34;;;;;;;21.90;9.60;;;;;;;12.29;56.12;100043.05;434007;1257;96123;-41
2024/04/11 18:47:50;;;;;;;28.70;10.20;;;;;;;11.39;58.64;100057.80;434007;1262;96984;-44
2024/04/11 19:08:01;;;;;;;31.60;11.50;;;;;;;10.74;60.12;100067.65;435543;1251;95719;-40
2024/04/11 19:18:10;;;;;;;31.40;9.60;;;;;;;10.62;60.50;100071.22;435216;1257;97925;-41
2024/04/11 19:28:14;;;;;;;29.60;10.90;;;;;;;10.45;60.93;100074.92;435448;1257;110083;-41
2024/04/11 19:38:25;;;;;;;28.80;11.30;;;;;;;10.32;61.67;100077.30;435363;1251;108598;-41
2024/04/11 19:48:29;;;;;;;21.20;10.30;;;;;;;10.12;62.02;100078.92;435366;1263;96561;-41
2024/04/11 19:58:36;;;;;;;24.20;10.50;;;;;;;9.81;62.28;100085.70;435378;1253;97970;-40
2024/04/11 20:08:48;;;;;;;24.70;11.40;;;;;;;9.59;62.76;100087.44;435218;1264;107903;-43
2024/04/11 20:29:00;;;;;;;32.70;16.40;;;;;;;9.45;63.87;100084.40;435451;1254;106948;-41
2024/04/11 20:39:13;;;;;;;40.80;21.70;;;;;;;9.37;64.42;100079.48;435380;1252;96950;-41
2024/04/11 21:51:41;;;;;;;25.10;11.40;;;;;;;8.85;67.02;100088.08;435219;1254;107579;-40
2024/04/11 22:01:47;;;;;;;18.90;10.60;;;;;;;8.93;66.96;100093.98;435295;1251;97905;-40
2024/04/11 22:11:51;;;;;;;15.70;7.80;;;;;;;8.93;67.07;100087.84;435297;1254;108033;-40
2024/04/11 22:21:55;;;;;;;13.50;6.80;;;;;;;8.95;67.25;100086.66;435444;1251;97983;-40
2024/04/11 22:32:01;;;;;;;17.20;7.40;;;;;;;8.98;67.31;100093.55;435185;1254;110230;-41
2024/04/11 22:42:09;;;;;;;17.20;7.50;;;;;;;9.02;67.59;100094.47;435335;1251;107368;-40
2024/04/11 22:52:31;;;;;;;10.60;6.10;;;;;;;9.08;67.41;100095.15;435334;1254;97871;-39
2024/04/11 23:02:35;;;;;;;14.90;9.20;;;;;;;9.17;67.50;100102.80;435378;1255;107791;-41
2024/04/11 23:12:39;;;;;;;13.10;7.90;;;;;;;9.10;67.55;100098.66;435458;1251;97470;-40
2024/04/11 23:22:44;;;;;;;11.30;6.80;;;;;;;8.94;67.67;100094.72;435421;1251;109544;-41
2024/04/11 23:32:49;;;;;;;13.20;6.80;;;;;;;8.81;67.78;100092.97;435235;1251;108133;-40
2024/04/11 23:42:53;;;;;;;8.10;5.70;;;;;;;8.74;67.78;100093.59;435503;1254;97458;-40
2024/04/11 23:52:56;;;;;;;9.70;5.00;;;;;;;8.78;67.93;100092.05;437785;1250;108689;-40
